sensor_id;sensor_type;location;lat;lon;timestamp;P1;durP1;ratioP1;P2;durP2;ratioP2
11473;SDS011;5793;52.238;13.438;2023-06-14T00:02:11;2.55;;;2.35;;
11473;SDS011;5793;52.238;13.438;2023-06-14T00:04:42;3.95;;;2.30;;
11473;SDS011;5793;52.238;13.438;2023-06-14T00:07:09;5.32;;;2.60;;
11473;SDS011;5793;52.238;13.438;2023-06-14T00:09:40;2.47;;;2.28;;
11473;SDS011;5793;52.238;13.438;2023-06-14T00:12:08;3.83;;;2.20;;
11473;SDS011;5793;52.238;13.438;2023-06-14T00:14:36;5.00;;;2.42;;
11473;SDS011;5793;52.238;13.438;2023-06-14T00:17:04;2.53;;;2.30;;
11473;SDS011;5793;52.238;13.438;2023-06-14T00:19:33;3.53;;;2.40;;
11473;SDS011;5793;52.238;13.438;2023-06-14T00:22:04;4.95;;;2.67;;
11473;SDS011;5793;52.238;13.438;2023-06-14T00:24:32;4.55;;;2.80;;
11473;SDS011;5793;52.238;13.438;2023-06-14T00:27:00;7.30;;;2.72;;
11473;SDS011;5793;52.238;13.438;2023-06-14T00:29:28;3.17;;;2.72;;
11473;SDS011;5793;52.238;13.438;2023-06-14T00:31:56;2.60;;;2.40;;
11473;SDS011;5793;52.238;13.438;2023-06-14T00:34:24;3.03;;;2.60;;
11473;SDS011;5793;52.238;13.438;2023-06-14T00:36:51;2.90;;;2.60;;
11473;SDS011;5793;52.238;13.438;2023-06-14T00:39:20;2.88;;;2.28;;
11473;SDS011;5793;52.238;13.438;2023-06-14T00:41:48;5.10;;;2.60;;
11473;SDS011;5793;52.238;13.438;2023-06-14T00:44:19;6.10;;;2.88;;
11473;SDS011;5793;52.238;13.438;2023-06-14T00:46:47;3.33;;;2.63;;
11473;SDS011;5793;52.238;13.438;2023-06-14T00:49:16;6.10;;;2.97;;
11473;SDS011;5793;52.238;13.438;2023-06-14T00:51:45;3.22;;;2.72;;
11473;SDS011;5793;52.238;13.438;2023-06-14T00:54:13;4.43;;;3.15;;
11473;SDS011;5793;52.238;13.438;2023-06-14T00:56:42;3.55;;;3.00;;
11473;SDS011;5793;52.238;13.438;2023-06-14T00:59:11;3.15;;;2.83;;
11473;SDS011;5793;52.238;13.438;2023-06-14T01:01:39;3.42;;;2.80;;
11473;SDS011;5793;52.238;13.438;2023-06-14T01:04:07;3.03;;;2.72;;
11473;SDS011;5793;52.238;13.438;2023-06-14T01:06:38;2.85;;;2.60;;
11473;SDS011;5793;52.238;13.438;2023-06-14T01:09:18;4.00;;;2.80;;
11473;SDS011;5793;52.238;13.438;2023-06-14T01:11:57;4.63;;;3.05;;
11473;SDS011;5793;52.238;13.438;2023-06-14T01:14:33;3.63;;;3.00;;
11473;SDS011;5793;52.238;13.438;2023-06-14T01:17:02;4.05;;;2.95;;
11473;SDS011;5793;52.238;13.438;2023-06-14T01:19:34;4.72;;;3.35;;
11473;SDS011;5793;52.238;13.438;2023-06-14T01:22:02;4.35;;;2.72;;
11473;SDS011;5793;52.238;13.438;2023-06-14T01:24:32;3.80;;;2.92;;
11473;SDS011;5793;52.238;13.438;2023-06-14T01:27:01;4.10;;;2.97;;
11473;SDS011;5793;52.238;13.438;2023-06-14T01:29:30;5.30;;;3.10;;
11473;SDS011;5793;52.238;13.438;2023-06-14T01:31:59;3.80;;;3.10;;
11473;SDS011;5793;52.238;13.438;2023-06-14T01:34:27;4.15;;;3.20;;
11473;SDS011;5793;52.238;13.438;2023-06-14T01:36:56;4.10;;;3.30;;
11473;SDS011;5793;52.238;13.438;2023-06-14T01:39:25;4.93;;;2.90;;
11473;SDS011;5793;52.238;13.438;2023-06-14T01:41:54;4.35;;;3.40;;
11473;SDS011;5793;52.238;13.438;2023-06-14T01:44:23;6.28;;;3.40;;
11473;SDS011;5793;52.238;13.438;2023-06-14T01:46:54;6.60;;;3.22;;
11473;SDS011;5793;52.238;13.438;2023-06-14T01:49:22;4.38;;;3.00;;
11473;SDS011;5793;52.238;13.438;2023-06-14T01:51:49;3.50;;;3.00;;
11473;SDS011;5793;52.238;13.438;2023-06-14T01:54:17;4.43;;;3.50;;
11473;SDS011;5793;52.238;13.438;2023-06-14T01:56:45;3.83;;;2.93;;
11473;SDS011;5793;52.238;13.438;2023-06-14T01:59:14;3.87;;;3.10;;
11473;SDS011;5793;52.238;13.438;2023-06-14T02:01:42;5.78;;;3.30;;
11473;SDS011;5793;52.238;13.438;2023-06-14T02:04:10;4.20;;;3.30;;
11473;SDS011;5793;52.238;13.438;2023-06-14T02:06:38;5.22;;;3.25;;
11473;SDS011;5793;52.238;13.438;2023-06-14T02:09:06;5.27;;;3.30;;
11473;SDS011;5793;52.238;13.438;2023-06-14T02:11:33;4.60;;;3.45;;
11473;SDS011;5793;52.238;13.438;2023-06-14T02:14:01;3.83;;;3.47;;
11473;SDS011;5793;52.238;13.438;2023-06-14T02:16:30;4.03;;;3.40;;
11473;SDS011;5793;52.238;13.438;2023-06-14T02:18:59;3.90;;;3.47;;
11473;SDS011;5793;52.238;13.438;2023-06-14T02:21:26;6.73;;;3.77;;
11473;SDS011;5793;52.238;13.438;2023-06-14T02:23:54;4.13;;;3.63;;
11473;SDS011;5793;52.238;13.438;2023-06-14T02:26:22;3.70;;;3.30;;
11473;SDS011;5793;52.238;13.438;2023-06-14T02:28:50;4.60;;;3.30;;
11473;SDS011;5793;52.238;13.438;2023-06-14T02:31:17;5.07;;;3.25;;
11473;SDS011;5793;52.238;13.438;2023-06-14T02:33:47;4.03;;;3.53;;
11473;SDS011;5793;52.238;13.438;2023-06-14T02:36:14;5.73;;;3.70;;
11473;SDS011;5793;52.238;13.438;2023-06-14T02:38:42;6.50;;;3.50;;
11473;SDS011;5793;52.238;13.438;2023-06-14T02:41:11;5.07;;;3.60;;
11473;SDS011;5793;52.238;13.438;2023-06-14T02:43:39;6.47;;;3.73;;
11473;SDS011;5793;52.238;13.438;2023-06-14T02:46:07;4.97;;;3.43;;
11473;SDS011;5793;52.238;13.438;2023-06-14T02:48:34;4.53;;;3.27;;
11473;SDS011;5793;52.238;13.438;2023-06-14T02:51:04;6.10;;;3.60;;
11473;SDS011;5793;52.238;13.438;2023-06-14T02:53:34;5.28;;;3.70;;
11473;SDS011;5793;52.238;13.438;2023-06-14T02:56:02;4.53;;;3.60;;
11473;SDS011;5793;52.238;13.438;2023-06-14T02:58:30;4.97;;;3.43;;
11473;SDS011;5793;52.238;13.438;2023-06-14T03:01:03;5.20;;;3.93;;
11473;SDS011;5793;52.238;13.438;2023-06-14T03:03:31;4.30;;;3.70;;
11473;SDS011;5793;52.238;13.438;2023-06-14T03:05:59;4.83;;;3.90;;
11473;SDS011;5793;52.238;13.438;2023-06-14T03:08:32;8.02;;;3.70;;
11473;SDS011;5793;52.238;13.438;2023-06-14T03:11:04;5.67;;;3.90;;
11473;SDS011;5793;52.238;13.438;2023-06-14T03:16:17;5.20;;;3.97;;
11473;SDS011;5793;52.238;13.438;2023-06-14T03:18:48;5.40;;;3.93;;
11473;SDS011;5793;52.238;13.438;2023-06-14T03:21:16;4.17;;;3.77;;
11473;SDS011;5793;52.238;13.438;2023-06-14T03:23:45;5.37;;;4.30;;
11473;SDS011;5793;52.238;13.438;2023-06-14T03:26:13;5.38;;;4.35;;
11473;SDS011;5793;52.238;13.438;2023-06-14T03:28:44;6.53;;;4.37;;
11473;SDS011;5793;52.238;13.438;2023-06-14T03:31:12;6.47;;;4.37;;
11473;SDS011;5793;52.238;13.438;2023-06-14T03:33:42;6.47;;;5.10;;
11473;SDS011;5793;52.238;13.438;2023-06-14T03:36:10;6.80;;;5.13;;
11473;SDS011;5793;52.238;13.438;2023-06-14T03:38:38;6.07;;;5.03;;
11473;SDS011;5793;52.238;13.438;2023-06-14T03:41:07;5.87;;;4.60;;
11473;SDS011;5793;52.238;13.438;2023-06-14T03:43:35;6.53;;;5.00;;
11473;SDS011;5793;52.238;13.438;2023-06-14T03:46:03;9.43;;;5.57;;
11473;SDS011;5793;52.238;13.438;2023-06-14T03:48:31;8.33;;;5.47;;
11473;SDS011;5793;52.238;13.438;2023-06-14T03:50:58;7.90;;;5.10;;
11473;SDS011;5793;52.238;13.438;2023-06-14T03:53:27;5.10;;;4.50;;
11473;SDS011;5793;52.238;13.438;2023-06-14T03:55:55;8.00;;;4.93;;
11473;SDS011;5793;52.238;13.438;2023-06-14T03:58:25;5.87;;;4.83;;
11473;SDS011;5793;52.238;13.438;2023-06-14T04:00:54;8.13;;;5.23;;
11473;SDS011;5793;52.238;13.438;2023-06-14T04:03:22;5.70;;;5.10;;
11473;SDS011;5793;52.238;13.438;2023-06-14T04:05:51;7.33;;;4.87;;
11473;SDS011;5793;52.238;13.438;2023-06-14T04:08:23;5.67;;;4.80;;
11473;SDS011;5793;52.238;13.438;2023-06-14T04:10:50;5.93;;;5.10;;
11473;SDS011;5793;52.238;13.438;2023-06-14T04:13:18;5.40;;;4.77;;
11473;SDS011;5793;52.238;13.438;2023-06-14T04:15:47;8.47;;;5.10;;
11473;SDS011;5793;52.238;13.438;2023-06-14T04:18:16;6.63;;;5.20;;
11473;SDS011;5793;52.238;13.438;2023-06-14T04:20:47;6.25;;;4.75;;
11473;SDS011;5793;52.238;13.438;2023-06-14T04:23:15;5.97;;;5.38;;
11473;SDS011;5793;52.238;13.438;2023-06-14T04:25:44;5.80;;;5.20;;
11473;SDS011;5793;52.238;13.438;2023-06-14T04:28:13;9.77;;;5.90;;
11473;SDS011;5793;52.238;13.438;2023-06-14T04:30:41;6.82;;;5.70;;
11473;SDS011;5793;52.238;13.438;2023-06-14T04:33:12;6.53;;;5.82;;
11473;SDS011;5793;52.238;13.438;2023-06-14T04:35:41;9.93;;;5.87;;
11473;SDS011;5793;52.238;13.438;2023-06-14T04:38:13;7.32;;;5.40;;
11473;SDS011;5793;52.238;13.438;2023-06-14T04:40:42;9.20;;;6.70;;
11473;SDS011;5793;52.238;13.438;2023-06-14T04:43:10;8.18;;;6.05;;
11473;SDS011;5793;52.238;13.438;2023-06-14T04:45:39;6.95;;;5.75;;
11473;SDS011;5793;52.238;13.438;2023-06-14T04:48:07;7.82;;;5.60;;
11473;SDS011;5793;52.238;13.438;2023-06-14T04:50:38;6.68;;;5.68;;
11473;SDS011;5793;52.238;13.438;2023-06-14T04:53:07;5.82;;;5.22;;
11473;SDS011;5793;52.238;13.438;2023-06-14T04:55:35;6.82;;;5.45;;
11473;SDS011;5793;52.238;13.438;2023-06-14T04:58:03;6.03;;;5.28;;
11473;SDS011;5793;52.238;13.438;2023-06-14T05:00:31;7.82;;;5.80;;
11473;SDS011;5793;52.238;13.438;2023-06-14T05:02:58;5.78;;;5.00;;
11473;SDS011;5793;52.238;13.438;2023-06-14T05:05:27;5.72;;;4.95;;
11473;SDS011;5793;52.238;13.438;2023-06-14T05:07:56;7.22;;;5.70;;
11473;SDS011;5793;52.238;13.438;2023-06-14T05:10:24;7.25;;;6.50;;
11473;SDS011;5793;52.238;13.438;2023-06-14T05:12:52;8.35;;;6.28;;
11473;SDS011;5793;52.238;13.438;2023-06-14T05:15:20;10.00;;;5.85;;
11473;SDS011;5793;52.238;13.438;2023-06-14T05:17:51;5.90;;;5.30;;
11473;SDS011;5793;52.238;13.438;2023-06-14T05:20:21;11.20;;;5.90;;
11473;SDS011;5793;52.238;13.438;2023-06-14T05:22:51;7.82;;;6.00;;
11473;SDS011;5793;52.238;13.438;2023-06-14T05:25:20;8.43;;;6.00;;
11473;SDS011;5793;52.238;13.438;2023-06-14T05:27:48;9.60;;;5.95;;
11473;SDS011;5793;52.238;13.438;2023-06-14T05:30:16;7.18;;;6.45;;
11473;SDS011;5793;52.238;13.438;2023-06-14T05:32:44;7.97;;;6.65;;
11473;SDS011;5793;52.238;13.438;2023-06-14T05:35:12;7.32;;;6.30;;
11473;SDS011;5793;52.238;13.438;2023-06-14T05:37:41;7.80;;;6.20;;
11473;SDS011;5793;52.238;13.438;2023-06-14T05:40:09;8.00;;;6.53;;
11473;SDS011;5793;52.238;13.438;2023-06-14T05:42:39;10.93;;;6.95;;
11473;SDS011;5793;52.238;13.438;2023-06-14T05:45:07;8.70;;;6.40;;
11473;SDS011;5793;52.238;13.438;2023-06-14T05:47:35;10.88;;;6.30;;
11473;SDS011;5793;52.238;13.438;2023-06-14T05:50:03;7.68;;;6.70;;
11473;SDS011;5793;52.238;13.438;2023-06-14T05:52:31;8.80;;;5.90;;
11473;SDS011;5793;52.238;13.438;2023-06-14T05:54:59;7.38;;;6.13;;
11473;SDS011;5793;52.238;13.438;2023-06-14T05:57:27;10.77;;;6.05;;
11473;SDS011;5793;52.238;13.438;2023-06-14T05:59:56;7.47;;;5.88;;
11473;SDS011;5793;52.238;13.438;2023-06-14T06:02:24;6.38;;;5.78;;
11473;SDS011;5793;52.238;13.438;2023-06-14T06:04:52;6.63;;;5.90;;
11473;SDS011;5793;52.238;13.438;2023-06-14T06:07:22;8.18;;;6.10;;
11473;SDS011;5793;52.238;13.438;2023-06-14T06:09:50;8.13;;;6.53;;
11473;SDS011;5793;52.238;13.438;2023-06-14T06:12:18;8.45;;;5.72;;
11473;SDS011;5793;52.238;13.438;2023-06-14T06:14:45;8.85;;;6.47;;
11473;SDS011;5793;52.238;13.438;2023-06-14T06:17:14;11.63;;;6.20;;
11473;SDS011;5793;52.238;13.438;2023-06-14T06:19:42;10.48;;;6.45;;
11473;SDS011;5793;52.238;13.438;2023-06-14T06:22:10;9.32;;;6.05;;
11473;SDS011;5793;52.238;13.438;2023-06-14T06:24:38;10.27;;;6.40;;
11473;SDS011;5793;52.238;13.438;2023-06-14T06:27:08;6.78;;;6.07;;
11473;SDS011;5793;52.238;13.438;2023-06-14T06:29:36;7.28;;;6.35;;
11473;SDS011;5793;52.238;13.438;2023-06-14T06:32:04;10.05;;;6.57;;
11473;SDS011;5793;52.238;13.438;2023-06-14T06:34:34;10.95;;;7.38;;
11473;SDS011;5793;52.238;13.438;2023-06-14T06:37:03;9.18;;;6.00;;
11473;SDS011;5793;52.238;13.438;2023-06-14T06:39:32;7.03;;;6.07;;
11473;SDS011;5793;52.238;13.438;2023-06-14T06:42:00;9.02;;;5.90;;
11473;SDS011;5793;52.238;13.438;2023-06-14T06:44:28;6.55;;;5.75;;
11473;SDS011;5793;52.238;13.438;2023-06-14T06:46:56;7.03;;;5.88;;
11473;SDS011;5793;52.238;13.438;2023-06-14T06:49:24;6.32;;;5.72;;
11473;SDS011;5793;52.238;13.438;2023-06-14T06:52:00;6.18;;;5.57;;
11473;SDS011;5793;52.238;13.438;2023-06-14T06:54:30;6.40;;;5.80;;
11473;SDS011;5793;52.238;13.438;2023-06-14T06:56:58;7.35;;;5.95;;
11473;SDS011;5793;52.238;13.438;2023-06-14T06:59:26;8.73;;;5.95;;
11473;SDS011;5793;52.238;13.438;2023-06-14T07:01:54;10.40;;;6.00;;
11473;SDS011;5793;52.238;13.438;2023-06-14T07:04:22;7.28;;;5.25;;
11473;SDS011;5793;52.238;13.438;2023-06-14T07:06:50;6.80;;;5.78;;
11473;SDS011;5793;52.238;13.438;2023-06-14T07:09:19;5.32;;;4.82;;
11473;SDS011;5793;52.238;13.438;2023-06-14T07:11:47;6.95;;;5.38;;
11473;SDS011;5793;52.238;13.438;2023-06-14T07:14:15;6.55;;;5.03;;
11473;SDS011;5793;52.238;13.438;2023-06-14T07:16:43;6.22;;;5.47;;
11473;SDS011;5793;52.238;13.438;2023-06-14T07:19:13;6.30;;;5.13;;
11473;SDS011;5793;52.238;13.438;2023-06-14T07:21:41;5.65;;;5.00;;
11473;SDS011;5793;52.238;13.438;2023-06-14T07:24:09;6.05;;;4.70;;
11473;SDS011;5793;52.238;13.438;2023-06-14T07:26:38;5.40;;;4.80;;
11473;SDS011;5793;52.238;13.438;2023-06-14T07:29:06;7.05;;;5.38;;
11473;SDS011;5793;52.238;13.438;2023-06-14T07:31:33;9.18;;;5.32;;
11473;SDS011;5793;52.238;13.438;2023-06-14T07:34:01;6.20;;;5.60;;
11473;SDS011;5793;52.238;13.438;2023-06-14T07:36:30;5.10;;;4.55;;
11473;SDS011;5793;52.238;13.438;2023-06-14T07:38:57;10.80;;;5.68;;
11473;SDS011;5793;52.238;13.438;2023-06-14T07:41:25;8.60;;;5.75;;
11473;SDS011;5793;52.238;13.438;2023-06-14T07:43:54;6.78;;;5.30;;
11473;SDS011;5793;52.238;13.438;2023-06-14T07:46:22;5.65;;;4.97;;
11473;SDS011;5793;52.238;13.438;2023-06-14T07:48:50;7.22;;;4.63;;
11473;SDS011;5793;52.238;13.438;2023-06-14T07:51:18;6.13;;;4.75;;
11473;SDS011;5793;52.238;13.438;2023-06-14T07:53:47;5.28;;;4.30;;
11473;SDS011;5793;52.238;13.438;2023-06-14T07:56:19;7.57;;;4.93;;
11473;SDS011;5793;52.238;13.438;2023-06-14T07:58:47;7.97;;;5.15;;
11473;SDS011;5793;52.238;13.438;2023-06-14T08:01:16;4.88;;;4.30;;
11473;SDS011;5793;52.238;13.438;2023-06-14T08:03:46;6.13;;;4.57;;
11473;SDS011;5793;52.238;13.438;2023-06-14T08:06:14;5.93;;;4.30;;
11473;SDS011;5793;52.238;13.438;2023-06-14T08:08:42;7.13;;;4.10;;
11473;SDS011;5793;52.238;13.438;2023-06-14T08:11:10;4.53;;;4.13;;
11473;SDS011;5793;52.238;13.438;2023-06-14T08:13:38;6.32;;;4.45;;
11473;SDS011;5793;52.238;13.438;2023-06-14T08:16:05;7.13;;;4.65;;
11473;SDS011;5793;52.238;13.438;2023-06-14T08:18:35;6.35;;;4.20;;
11473;SDS011;5793;52.238;13.438;2023-06-14T08:21:02;5.40;;;4.38;;
11473;SDS011;5793;52.238;13.438;2023-06-14T08:23:30;6.15;;;3.78;;
11473;SDS011;5793;52.238;13.438;2023-06-14T08:25:58;5.85;;;4.07;;
11473;SDS011;5793;52.238;13.438;2023-06-14T08:28:27;6.22;;;4.50;;
11473;SDS011;5793;52.238;13.438;2023-06-14T08:30:55;5.43;;;3.80;;
11473;SDS011;5793;52.238;13.438;2023-06-14T08:33:23;7.28;;;4.53;;
11473;SDS011;5793;52.238;13.438;2023-06-14T08:35:52;8.52;;;4.10;;
11473;SDS011;5793;52.238;13.438;2023-06-14T08:38:21;5.90;;;3.42;;
11473;SDS011;5793;52.238;13.438;2023-06-14T08:40:50;5.00;;;3.70;;
11473;SDS011;5793;52.238;13.438;2023-06-14T08:43:19;5.15;;;3.33;;
11473;SDS011;5793;52.238;13.438;2023-06-14T08:45:47;5.45;;;3.58;;
11473;SDS011;5793;52.238;13.438;2023-06-14T08:48:20;4.47;;;3.63;;
11473;SDS011;5793;52.238;13.438;2023-06-14T08:50:52;5.25;;;3.40;;
11473;SDS011;5793;52.238;13.438;2023-06-14T08:53:28;6.07;;;3.30;;
11473;SDS011;5793;52.238;13.438;2023-06-14T08:56:00;5.00;;;3.20;;
11473;SDS011;5793;52.238;13.438;2023-06-14T08:58:30;5.45;;;2.95;;
11473;SDS011;5793;52.238;13.438;2023-06-14T09:01:00;4.07;;;3.13;;
11473;SDS011;5793;52.238;13.438;2023-06-14T09:03:29;4.30;;;3.00;;
11473;SDS011;5793;52.238;13.438;2023-06-14T09:05:58;4.70;;;3.25;;
11473;SDS011;5793;52.238;13.438;2023-06-14T09:08:27;2.97;;;2.72;;
11473;SDS011;5793;52.238;13.438;2023-06-14T09:10:56;8.07;;;3.50;;
11473;SDS011;5793;52.238;13.438;2023-06-14T09:13:24;6.22;;;3.35;;
11473;SDS011;5793;52.238;13.438;2023-06-14T09:15:57;4.45;;;2.85;;
11473;SDS011;5793;52.238;13.438;2023-06-14T09:18:32;6.40;;;2.97;;
11473;SDS011;5793;52.238;13.438;2023-06-14T09:21:03;4.22;;;3.05;;
11473;SDS011;5793;52.238;13.438;2023-06-14T09:23:33;5.18;;;3.17;;
11473;SDS011;5793;52.238;13.438;2023-06-14T09:26:07;3.13;;;2.83;;
11473;SDS011;5793;52.238;13.438;2023-06-14T09:28:36;4.03;;;3.10;;
11473;SDS011;5793;52.238;13.438;2023-06-14T09:31:08;8.07;;;3.53;;
11473;SDS011;5793;52.238;13.438;2023-06-14T09:33:37;5.47;;;3.15;;
11473;SDS011;5793;52.238;13.438;2023-06-14T09:36:10;5.47;;;3.13;;
11473;SDS011;5793;52.238;13.438;2023-06-14T09:38:39;5.63;;;3.35;;
11473;SDS011;5793;52.238;13.438;2023-06-14T09:41:08;4.82;;;3.03;;
11473;SDS011;5793;52.238;13.438;2023-06-14T09:43:35;11.73;;;2.95;;
11473;SDS011;5793;52.238;13.438;2023-06-14T09:46:04;6.05;;;2.90;;
11473;SDS011;5793;52.238;13.438;2023-06-14T09:48:34;2.97;;;2.63;;
11473;SDS011;5793;52.238;13.438;2023-06-14T09:51:03;6.10;;;2.50;;
11473;SDS011;5793;52.238;13.438;2023-06-14T09:53:34;5.22;;;2.75;;
11473;SDS011;5793;52.238;13.438;2023-06-14T09:56:04;6.22;;;2.78;;
11473;SDS011;5793;52.238;13.438;2023-06-14T09:58:33;5.40;;;2.60;;
11473;SDS011;5793;52.238;13.438;2023-06-14T10:01:06;5.20;;;2.78;;
11473;SDS011;5793;52.238;13.438;2023-06-14T10:03:39;4.60;;;2.92;;
11473;SDS011;5793;52.238;13.438;2023-06-14T10:06:29;6.45;;;2.90;;
11473;SDS011;5793;52.238;13.438;2023-06-14T10:08:59;4.28;;;2.78;;
11473;SDS011;5793;52.238;13.438;2023-06-14T10:11:28;6.80;;;3.22;;
11473;SDS011;5793;52.238;13.438;2023-06-14T10:13:56;3.72;;;3.05;;
11473;SDS011;5793;52.238;13.438;2023-06-14T10:16:27;4.72;;;2.70;;
11473;SDS011;5793;52.238;13.438;2023-06-14T10:19:00;8.80;;;3.58;;
11473;SDS011;5793;52.238;13.438;2023-06-14T10:21:36;5.32;;;2.55;;
11473;SDS011;5793;52.238;13.438;2023-06-14T10:24:12;6.30;;;3.30;;
11473;SDS011;5793;52.238;13.438;2023-06-14T10:26:53;4.88;;;3.00;;
11473;SDS011;5793;52.238;13.438;2023-06-14T10:29:26;7.20;;;2.78;;
11473;SDS011;5793;52.238;13.438;2023-06-14T10:31:58;5.78;;;2.78;;
11473;SDS011;5793;52.238;13.438;2023-06-14T10:34:27;3.05;;;2.80;;
11473;SDS011;5793;52.238;13.438;2023-06-14T10:37:03;4.45;;;2.83;;
11473;SDS011;5793;52.238;13.438;2023-06-14T10:39:37;7.13;;;2.80;;
11473;SDS011;5793;52.238;13.438;2023-06-14T10:42:07;4.72;;;2.97;;
11473;SDS011;5793;52.238;13.438;2023-06-14T10:47:26;5.93;;;2.92;;
11473;SDS011;5793;52.238;13.438;2023-06-14T10:49:55;4.68;;;2.63;;
11473;SDS011;5793;52.238;13.438;2023-06-14T10:52:26;9.82;;;2.95;;
11473;SDS011;5793;52.238;13.438;2023-06-14T10:54:57;4.75;;;2.47;;
11473;SDS011;5793;52.238;13.438;2023-06-14T10:57:38;4.63;;;2.97;;
11473;SDS011;5793;52.238;13.438;2023-06-14T11:00:17;9.15;;;3.10;;
11473;SDS011;5793;52.238;13.438;2023-06-14T11:05:54;3.75;;;2.80;;
11473;SDS011;5793;52.238;13.438;2023-06-14T11:08:35;3.85;;;2.63;;
11473;SDS011;5793;52.238;13.438;2023-06-14T11:11:14;7.53;;;2.83;;
11473;SDS011;5793;52.238;13.438;2023-06-14T11:13:44;2.67;;;2.40;;
11473;SDS011;5793;52.238;13.438;2023-06-14T11:16:13;7.65;;;3.10;;
11473;SDS011;5793;52.238;13.438;2023-06-14T11:18:43;3.78;;;3.00;;
11473;SDS011;5793;52.238;13.438;2023-06-14T11:21:15;7.85;;;2.80;;
11473;SDS011;5793;52.238;13.438;2023-06-14T11:23:48;5.68;;;2.80;;
11473;SDS011;5793;52.238;13.438;2023-06-14T11:26:25;6.28;;;2.72;;
11473;SDS011;5793;52.238;13.438;2023-06-14T11:28:55;5.75;;;2.92;;
11473;SDS011;5793;52.238;13.438;2023-06-14T11:31:24;4.18;;;2.85;;
11473;SDS011;5793;52.238;13.438;2023-06-14T11:33:53;4.13;;;2.65;;
11473;SDS011;5793;52.238;13.438;2023-06-14T11:36:21;3.47;;;2.63;;
11473;SDS011;5793;52.238;13.438;2023-06-14T11:38:49;3.45;;;2.85;;
11473;SDS011;5793;52.238;13.438;2023-06-14T11:41:19;4.72;;;2.75;;
11473;SDS011;5793;52.238;13.438;2023-06-14T11:43:48;3.58;;;2.70;;
11473;SDS011;5793;52.238;13.438;2023-06-14T11:46:20;3.08;;;2.67;;
11473;SDS011;5793;52.238;13.438;2023-06-14T11:48:50;4.55;;;2.88;;
11473;SDS011;5793;52.238;13.438;2023-06-14T11:51:19;5.97;;;2.85;;
11473;SDS011;5793;52.238;13.438;2023-06-14T11:53:47;7.13;;;3.05;;
11473;SDS011;5793;52.238;13.438;2023-06-14T11:59:14;4.65;;;2.70;;
11473;SDS011;5793;52.238;13.438;2023-06-14T12:09:30;3.80;;;2.40;;
11473;SDS011;5793;52.238;13.438;2023-06-14T12:12:01;4.95;;;2.80;;
11473;SDS011;5793;52.238;13.438;2023-06-14T12:14:31;4.32;;;2.67;;
11473;SDS011;5793;52.238;13.438;2023-06-14T12:17:03;5.65;;;2.85;;
11473;SDS011;5793;52.238;13.438;2023-06-14T12:19:33;6.72;;;3.00;;
11473;SDS011;5793;52.238;13.438;2023-06-14T12:22:09;3.90;;;2.80;;
11473;SDS011;5793;52.238;13.438;2023-06-14T12:24:37;7.13;;;2.80;;
11473;SDS011;5793;52.238;13.438;2023-06-14T12:27:05;5.40;;;2.80;;
11473;SDS011;5793;52.238;13.438;2023-06-14T12:29:35;4.80;;;2.88;;
11473;SDS011;5793;52.238;13.438;2023-06-14T12:32:03;5.75;;;2.88;;
11473;SDS011;5793;52.238;13.438;2023-06-14T12:34:31;5.80;;;3.03;;
11473;SDS011;5793;52.238;13.438;2023-06-14T12:36:59;5.88;;;2.90;;
11473;SDS011;5793;52.238;13.438;2023-06-14T12:39:27;7.07;;;2.75;;
11473;SDS011;5793;52.238;13.438;2023-06-14T12:41:56;9.10;;;3.10;;
11473;SDS011;5793;52.238;13.438;2023-06-14T12:44:24;4.68;;;2.95;;
11473;SDS011;5793;52.238;13.438;2023-06-14T12:46:53;5.53;;;3.00;;
11473;SDS011;5793;52.238;13.438;2023-06-14T12:49:21;6.43;;;3.03;;
11473;SDS011;5793;52.238;13.438;2023-06-14T12:51:49;7.20;;;2.78;;
11473;SDS011;5793;52.238;13.438;2023-06-14T12:54:17;5.97;;;3.05;;
11473;SDS011;5793;52.238;13.438;2023-06-14T12:57:04;4.60;;;3.30;;
11473;SDS011;5793;52.238;13.438;2023-06-14T12:59:32;4.53;;;3.00;;
11473;SDS011;5793;52.238;13.438;2023-06-14T13:02:11;3.50;;;2.58;;
11473;SDS011;5793;52.238;13.438;2023-06-14T13:04:40;4.43;;;3.00;;
11473;SDS011;5793;52.238;13.438;2023-06-14T13:07:08;6.75;;;3.05;;
11473;SDS011;5793;52.238;13.438;2023-06-14T13:09:36;5.93;;;3.15;;
11473;SDS011;5793;52.238;13.438;2023-06-14T13:12:05;11.98;;;3.90;;
11473;SDS011;5793;52.238;13.438;2023-06-14T13:14:33;7.07;;;3.00;;
11473;SDS011;5793;52.238;13.438;2023-06-14T13:17:01;5.43;;;2.70;;
11473;SDS011;5793;52.238;13.438;2023-06-14T13:19:31;4.07;;;3.08;;
11473;SDS011;5793;52.238;13.438;2023-06-14T13:21:58;3.78;;;2.65;;
11473;SDS011;5793;52.238;13.438;2023-06-14T13:24:26;7.10;;;3.38;;
11473;SDS011;5793;52.238;13.438;2023-06-14T13:26:56;5.95;;;2.50;;
11473;SDS011;5793;52.238;13.438;2023-06-14T13:29:24;5.63;;;2.97;;
11473;SDS011;5793;52.238;13.438;2023-06-14T13:31:53;5.05;;;2.85;;
11473;SDS011;5793;52.238;13.438;2023-06-14T13:34:21;4.07;;;2.92;;
11473;SDS011;5793;52.238;13.438;2023-06-14T13:36:50;5.60;;;3.38;;
11473;SDS011;5793;52.238;13.438;2023-06-14T13:39:18;3.95;;;2.90;;
11473;SDS011;5793;52.238;13.438;2023-06-14T13:41:46;5.28;;;2.70;;
11473;SDS011;5793;52.238;13.438;2023-06-14T13:44:14;6.43;;;3.05;;
11473;SDS011;5793;52.238;13.438;2023-06-14T13:46:44;9.07;;;3.25;;
11473;SDS011;5793;52.238;13.438;2023-06-14T13:49:12;7.20;;;3.40;;
11473;SDS011;5793;52.238;13.438;2023-06-14T13:51:40;8.88;;;3.13;;
11473;SDS011;5793;52.238;13.438;2023-06-14T13:54:11;4.40;;;3.08;;
11473;SDS011;5793;52.238;13.438;2023-06-14T13:56:40;6.47;;;3.08;;
11473;SDS011;5793;52.238;13.438;2023-06-14T13:59:08;5.25;;;2.95;;
11473;SDS011;5793;52.238;13.438;2023-06-14T14:01:37;5.90;;;3.28;;
11473;SDS011;5793;52.238;13.438;2023-06-14T14:04:05;5.38;;;2.80;;
11473;SDS011;5793;52.238;13.438;2023-06-14T14:06:33;9.02;;;3.10;;
11473;SDS011;5793;52.238;13.438;2023-06-14T14:09:01;9.73;;;3.63;;
11473;SDS011;5793;52.238;13.438;2023-06-14T14:11:30;6.53;;;3.30;;
11473;SDS011;5793;52.238;13.438;2023-06-14T14:13:59;3.80;;;3.30;;
11473;SDS011;5793;52.238;13.438;2023-06-14T14:16:28;6.15;;;3.35;;
11473;SDS011;5793;52.238;13.438;2023-06-14T14:18:57;4.38;;;3.08;;
11473;SDS011;5793;52.238;13.438;2023-06-14T14:21:25;4.45;;;3.33;;
11473;SDS011;5793;52.238;13.438;2023-06-14T14:23:53;4.35;;;2.78;;
11473;SDS011;5793;52.238;13.438;2023-06-14T14:26:21;4.57;;;3.03;;
11473;SDS011;5793;52.238;13.438;2023-06-14T14:28:51;6.85;;;3.13;;
11473;SDS011;5793;52.238;13.438;2023-06-14T14:31:19;3.30;;;2.55;;
11473;SDS011;5793;52.238;13.438;2023-06-14T14:33:46;5.95;;;3.05;;
11473;SDS011;5793;52.238;13.438;2023-06-14T14:36:14;7.95;;;3.53;;
11473;SDS011;5793;52.238;13.438;2023-06-14T14:38:42;4.82;;;3.10;;
11473;SDS011;5793;52.238;13.438;2023-06-14T14:41:10;4.53;;;3.33;;
11473;SDS011;5793;52.238;13.438;2023-06-14T14:43:38;5.95;;;2.85;;
11473;SDS011;5793;52.238;13.438;2023-06-14T14:46:07;3.70;;;2.53;;
11473;SDS011;5793;52.238;13.438;2023-06-14T14:48:35;5.65;;;3.13;;
11473;SDS011;5793;52.238;13.438;2023-06-14T14:51:03;7.43;;;2.88;;
11473;SDS011;5793;52.238;13.438;2023-06-14T14:53:30;5.05;;;2.75;;
11473;SDS011;5793;52.238;13.438;2023-06-14T14:55:58;4.28;;;2.95;;
11473;SDS011;5793;52.238;13.438;2023-06-14T14:58:26;9.55;;;3.08;;
11473;SDS011;5793;52.238;13.438;2023-06-14T15:00:54;12.73;;;3.28;;
11473;SDS011;5793;52.238;13.438;2023-06-14T15:03:23;5.38;;;3.08;;
11473;SDS011;5793;52.238;13.438;2023-06-14T15:05:51;4.78;;;2.90;;
11473;SDS011;5793;52.238;13.438;2023-06-14T15:08:19;8.75;;;3.00;;
11473;SDS011;5793;52.238;13.438;2023-06-14T15:10:47;5.15;;;3.10;;
11473;SDS011;5793;52.238;13.438;2023-06-14T15:13:15;5.25;;;2.95;;
11473;SDS011;5793;52.238;13.438;2023-06-14T15:15:44;5.82;;;3.30;;
11473;SDS011;5793;52.238;13.438;2023-06-14T15:18:12;3.88;;;2.42;;
11473;SDS011;5793;52.238;13.438;2023-06-14T15:20:42;3.70;;;3.08;;